SJC weather

Norman Y. Mineta San Jose International Airport
San Jose, California, United States

Public forecast

Using degrees Fahrenheit for public forecast. Weather courtesy of forecast.io.

Current aviation weather report (METAR) for Norman Y. Mineta San Jose International Airport

Retrieved 2019/10/16 20:53 UTC (20 minutes ago):

KSJC 162053Z 35006KT 10SM FEW038 SCT080 BKN110 20/08 A2994 RMK AO2 SLP139 T02000083 58029

Aviation forecast (TAF) for Norman Y. Mineta San Jose International Airport

Retrieved 2019/10/16 18:30 UTC (3 hours ago):

TAF KSJC 161728Z 1618/1718 VRB03KT P6SM FEW010 BKN200 FM161900 32009KT P6SM BKN200 FM170400 23005KT P6SM FEW040 BKN200 FM170800 15006KT P6SM VCSH SCT025 BKN050 FM171300 VRB06KT P6SM SCT025 BKN050 TEMPO 1713/1716 BKN025